Hovedside
METAR-TAF:

METAR-TAF

Lufthavner :

Maputo internasjonale lufthavn

Maputo, Mosambik

breddegrad: 25-55S, lengdegrad: 032-34E, høyde over havet: 39 m

Gjeldene værobservasjon

Denne rapporten ble laget for 33 minutter siden, klokken 06:00 UTC
Vind 3 kt fra Nord
Temperatur 26°C
Luftfuktighet 58%
Trykk 1015 hPa
Sikt 10 km eller mer
Få skyer i en høyde av 2000 ft

METAR: FQMA 120600Z 35003KT 9999 FEW020 26/17 Q1015 NOSIG

Tid: 08:33 (06:33 UTC)

Varsel

Denne rapporten ble laget for 2 timer og 33 minutter siden, klokken 04:00 UTC
Varsel gyldig fra 12. klokken 06 UTC til 13. klokken 12 UTC
Vind 4 kt fra Sør-sørvest
Sikt 10 km eller mer
Spredte skyer i en høyde av 2000 ft
Blir
fra 12. klokken 12 UTC til 12. klokken 14 UTC
Vind 10 kt fra Nordøst
Blir
fra 12. klokken 18 UTC til 12. klokken 20 UTC
Vind 8 kt fra Sør

TAF: FQMA 120400Z 1206/1312 20004KT 9999 SCT020 BECMG 1212/1214 04010KT BECMG 1218/1220 18008KT TX33/1213Z TN21/1303Z

Værobservasjoner og værvarsel for over 4000 flyplasser (METAR- og TAF-rapporter).

Tilgjengelige stasjoner er representert av de røde og gule prikkene på kartet.

Hold musepekeren over prikken for å se navnet på stasjonen.

Klikk så for å se værobservasjoner og -varsler.

For å forandre kartet kan du klikke på den grønne knappen med svart kryss for å zoome inn, på den grønne knappen med strek for å zoome ut, eller på de grønne pilene for å se tilstøtende kart.


METAR-TAF: